Time;durP1;ratioP1;P1;durP2;ratioP2;P2;SDS_P1;SDS_P2;PMS_P1;PMS_P2;Temp;Humidity;BMP_temperature;BMP_pressure;BME280_temperature;BME280_humidity;BME280_pressure;Samples;Min_cycle;Max_cycle;Signal;HPM_P1;HPM_P2
2021/08/30 00:01:30;;;;;;;;;7.25;4.00;;;;;19.37;49.16;101512.63;5083453;28;45584;-54
2021/08/30 00:03:56;;;;;;;;;4.75;4.75;;;;;19.36;49.11;101510.88;5082744;28;45583;-54
2021/08/30 00:06:21;;;;;;;;;8.25;5.50;;;;;19.33;49.30;101509.19;5082932;28;46123;-53
2021/08/30 00:08:47;;;;;;;;;4.75;4.50;;;;;19.33;49.23;101504.75;5082863;28;45314;-53
2021/08/30 00:11:12;;;;;;;;;6.50;5.00;;;;;19.31;49.35;101505.75;5083202;28;45211;-54
2021/08/30 00:13:38;;;;;;;;;4.50;4.50;;;;;19.28;49.66;101501.41;5082823;28;45335;-54
2021/08/30 00:16:04;;;;;;;;;3.25;3.25;;;;;19.25;49.50;101501.50;5082605;28;46094;-53
2021/08/30 00:18:30;;;;;;;;;6.75;5.00;;;;;19.25;49.53;101501.50;5082672;28;45359;-54
2021/08/30 00:20:55;;;;;;;;;8.00;6.00;;;;;19.22;49.68;101503.41;5082792;28;45228;-54
2021/08/30 00:23:21;;;;;;;;;6.75;5.00;;;;;19.18;49.69;101497.34;5082397;28;45544;-53
2021/08/30 00:25:46;;;;;;;;;4.00;4.00;;;;;19.20;49.63;101497.31;5061304;28;47132;-51
2021/08/30 00:28:12;;;;;;;;;4.75;4.75;;;;;19.16;49.55;101502.72;5075439;28;45267;-54
2021/08/30 00:30:37;;;;;;;;;6.25;4.50;;;;;19.14;49.74;101499.28;5082677;28;45226;-54
2021/08/30 00:33:02;;;;;;;;;5.25;3.25;;;;;19.13;49.76;101494.88;5082628;28;45466;-54
2021/08/30 00:35:28;;;;;;;;;5.00;3.00;;;;;19.13;49.50;101494.88;5082210;28;45243;-53
2021/08/30 00:37:53;;;;;;;;;6.25;4.00;;;;;19.10;49.58;101491.47;5081078;28;45162;-53
2021/08/30 00:40:19;;;;;;;;;6.75;4.00;;;;;19.09;50.03;101487.91;5082493;27;45361;-54
2021/08/30 00:42:45;;;;;;;;;3.00;3.00;;;;;19.08;50.11;101488.84;5082418;28;45561;-54
2021/08/30 00:45:11;;;;;;;;;5.25;4.00;;;;;19.07;49.98;101484.44;5082320;28;46228;-54
2021/08/30 00:47:38;;;;;;;;;8.50;4.75;;;;;19.06;50.27;101485.38;5082305;28;45267;-54
2021/08/30 00:50:05;;;;;;;;;6.25;4.50;;;;;19.06;49.99;101485.38;5081995;28;45315;-54
2021/08/30 00:52:31;;;;;;;;;6.00;4.00;;;;;19.06;49.73;101492.50;5082090;28;45259;-53
2021/08/30 00:54:58;;;;;;;;;7.25;7.25;;;;;19.06;49.81;101498.69;5082461;28;46433;-53
2021/08/30 00:57:23;;;;;;;;;8.75;5.25;;;;;19.05;50.36;101488.97;5080659;28;45232;-53
2021/08/30 00:59:49;;;;;;;;;8.00;6.75;;;;;19.04;49.70;101481.88;5082378;28;45216;-53
2021/08/30 01:02:14;;;;;;;;;8.25;5.50;;;;;19.04;50.33;101489.03;5082177;28;45359;-52
2021/08/30 01:04:41;;;;;;;;;5.25;5.25;;;;;19.00;50.25;101477.63;5081725;28;45947;-53
2021/08/30 01:07:19;;;;;;;;;8.50;8.00;;;;;19.03;50.17;101477.50;5082026;28;45302;-54
2021/08/30 01:10:07;;;;;;;;;7.75;7.00;;;;;19.02;50.00;101481.09;5082003;28;45183;-53
2021/08/30 01:12:43;;;;;;;;;10.00;9.00;;;;;19.02;50.32;101485.53;5081727;28;46367;-54
2021/08/30 01:15:19;;;;;;;;;6.00;6.00;;;;;19.01;49.86;101479.34;5080415;28;46272;-54
2021/08/30 01:17:45;;;;;;;;;8.00;7.00;;;;;19.01;50.24;101487.34;5081850;28;45257;-54
2021/08/30 01:20:35;;;;;;;;;11.50;8.00;;;;;19.02;50.49;101486.44;5081584;28;45330;-55
2021/08/30 01:23:01;;;;;;;;;9.50;7.00;;;;;18.98;50.23;101468.78;5081574;28;45304;-52
2021/08/30 01:25:30;;;;;;;;;7.75;6.00;;;;;19.00;50.56;101472.28;5081535;28;46028;-54
2021/08/30 01:27:56;;;;;;;;;7.75;7.00;;;;;19.01;50.61;101479.34;5081775;28;45351;-53
2021/08/30 01:30:25;;;;;;;;;9.75;9.25;;;;;19.01;50.72;101482.03;5081478;28;45528;-53
2021/08/30 01:32:52;;;;;;;;;11.50;7.00;;;;;18.99;50.28;101479.41;5081708;28;45421;-54
2021/08/30 01:35:21;;;;;;;;;8.00;8.00;;;;;18.99;50.70;101476.75;5081307;28;45507;-53
2021/08/30 01:37:49;;;;;;;;;10.25;9.00;;;;;18.98;50.62;101480.34;5080125;28;45427;-52
2021/08/30 01:40:17;;;;;;;;;9.00;7.50;;;;;19.00;50.54;101483.81;5074563;28;45276;-54
2021/08/30 01:42:46;;;;;;;;;11.50;9.75;;;;;19.00;50.41;101472.28;5073659;28;45240;-54
2021/08/30 01:45:14;;;;;;;;;12.25;8.75;;;;;18.99;50.51;101470.53;5081199;28;46273;-54
2021/08/30 01:47:42;;;;;;;;;10.00;9.00;;;;;18.99;50.84;101476.75;5081409;28;45284;-54
2021/08/30 01:50:09;;;;;;;;;11.75;11.00;;;;;18.97;50.59;101461.75;5081060;28;45173;-54
2021/08/30 01:52:40;;;;;;;;;14.00;13.00;;;;;18.98;51.12;101468.78;5081257;28;45498;-53
2021/08/30 01:55:23;;;;;;;;;12.25;12.00;;;;;18.98;50.87;101466.13;5081033;28;46210;-54
2021/08/30 02:00:43;;;;;;;;;11.75;10.25;;;;;19.00;50.63;101458.97;5081229;27;45391;-54
2021/08/30 02:03:23;;;;;;;;;13.25;12.50;;;;;18.99;51.00;101463.44;5081035;27;45314;-54
2021/08/30 02:05:58;;;;;;;;;14.00;10.25;;;;;18.99;51.09;101468.75;5080760;28;45302;-54
2021/08/30 02:08:25;;;;;;;;;14.00;11.50;;;;;19.00;50.97;101465.19;5080798;27;45321;-54
2021/08/30 02:10:54;;;;;;;;;11.00;9.75;;;;;19.00;50.72;101462.53;5081016;28;45368;-54
2021/08/30 02:13:22;;;;;;;;;16.75;14.75;;;;;19.01;51.28;101468.69;5080839;28;45497;-53
2021/08/30 02:15:48;;;;;;;;;10.25;10.25;;;;;19.01;51.49;101468.69;5062062;28;46166;-54
2021/08/30 02:18:13;;;;;;;;;15.50;13.00;;;;;19.01;51.28;101460.72;5071209;28;45318;-53
2021/08/30 02:20:47;;;;;;;;;12.25;11.25;;;;;19.01;51.51;101458.03;5080732;28;45235;-53
2021/08/30 02:23:15;;;;;;;;;9.75;9.00;;;;;19.02;51.07;101456.25;5080745;28;45327;-53
2021/08/30 02:25:41;;;;;;;;;9.25;9.25;;;;;19.02;51.49;101453.56;5079329;28;46212;-53
2021/08/30 02:28:08;;;;;;;;;10.50;8.75;;;;;19.01;51.37;101463.38;5080645;28;45426;-53
2021/08/30 02:30:37;;;;;;;;;13.50;10.75;;;;;19.00;51.13;101454.53;5080615;28;45315;-54
2021/08/30 02:33:08;;;;;;;;;11.50;8.75;;;;;18.99;51.64;101455.44;5080769;28;45154;-53
2021/08/30 02:35:37;;;;;;;;;9.00;8.25;;;;;19.00;51.34;101458.97;5080515;28;46239;-53
2021/08/30 02:38:03;;;;;;;;;10.50;8.75;;;;;19.00;51.33;101458.97;5078987;28;45240;-53
2021/08/30 02:40:29;;;;;;;;;12.25;9.50;;;;;18.98;51.32;101456.38;5080714;27;45208;-54
2021/08/30 02:43:01;;;;;;;;;11.50;9.50;;;;;18.98;51.75;101458.16;5065774;28;45714;-54
2021/08/30 02:45:28;;;;;;;;;12.50;10.75;;;;;19.00;51.89;101458.97;5080259;28;46180;-54
2021/08/30 02:47:57;;;;;;;;;11.25;10.25;;;;;18.98;51.72;101458.16;5080350;28;45389;-54
2021/08/30 02:50:24;;;;;;;;;10.00;9.00;;;;;18.97;51.76;101453.78;5080227;28;45342;-53
2021/08/30 02:52:50;;;;;;;;;16.00;11.50;;;;;18.96;51.87;101455.56;5080324;28;45185;-53
2021/08/30 02:55:16;;;;;;;;;8.50;8.50;;;;;18.97;51.77;101459.09;5080304;28;46431;-52
2021/08/30 02:57:43;;;;;;;;;12.00;9.50;;;;;18.95;52.41;101453.81;5080216;28;45298;-54
2021/08/30 03:00:09;;;;;;;;;13.50;12.50;;;;;18.95;52.26;101459.13;5079094;28;45332;-54
2021/08/30 03:02:36;;;;;;;;;13.50;12.00;;;;;18.95;51.86;101459.13;5080223;28;45411;-54
2021/08/30 03:05:03;;;;;;;;;10.00;10.00;;;;;18.95;52.41;101461.78;5079920;28;46282;-53
2021/08/30 03:07:30;;;;;;;;;13.75;12.75;;;;;18.95;51.87;101456.47;5080017;28;45353;-54
2021/08/30 03:09:59;;;;;;;;;10.00;10.00;;;;;18.97;52.16;101461.75;5078862;28;45385;-54
2021/08/30 03:12:27;;;;;;;;;10.25;9.25;;;;;18.95;52.46;101458.28;5079941;28;45350;-52
2021/08/30 03:14:57;;;;;;;;;11.25;10.25;;;;;18.98;52.16;101460.81;5079979;28;45387;-53
2021/08/30 03:17:23;;;;;;;;;12.00;10.75;;;;;18.97;52.45;101454.63;5080156;28;45208;-52
2021/08/30 03:19:52;;;;;;;;;12.25;12.00;;;;;18.96;52.08;101450.22;5079842;28;45305;-53
2021/08/30 03:22:18;;;;;;;;;12.25;9.75;;;;;18.97;52.32;101448.44;5083054;28;45544;-54
2021/08/30 03:24:44;;;;;;;;;11.25;9.25;;;;;18.98;52.07;101452.81;5083533;28;45351;-53
2021/08/30 03:27:12;;;;;;;;;15.25;12.75;;;;;18.98;52.08;101447.50;5083357;28;45267;-54
2021/08/30 03:29:38;;;;;;;;;11.25;11.25;;;;;18.98;52.38;101452.81;5082486;28;45295;-51
2021/08/30 03:32:08;;;;;;;;;10.25;10.00;;;;;18.98;52.56;101447.50;5083445;28;45223;-53
2021/08/30 03:34:35;;;;;;;;;11.00;9.75;;;;;19.00;52.81;101446.53;5083168;28;46143;-54
2021/08/30 03:37:02;;;;;;;;;11.25;10.50;;;;;19.00;52.36;101440.31;5083285;28;45207;-53
2021/08/30 03:39:28;;;;;;;;;10.75;10.25;;;;;19.00;52.86;101441.22;5081996;28;45320;-54
2021/08/30 03:41:54;;;;;;;;;9.75;9.00;;;;;19.02;52.63;101446.47;5083185;28;45243;-54
2021/08/30 03:44:20;;;;;;;;;14.75;12.00;;;;;19.03;52.74;101448.22;5083388;28;45390;-52
2021/08/30 03:46:46;;;;;;;;;10.25;9.00;;;;;19.05;52.55;101442.81;5062205;28;45388;-53
2021/08/30 03:49:12;;;;;;;;;14.25;12.75;;;;;19.05;52.85;101443.69;5075497;28;45342;-51
2021/08/30 03:51:39;;;;;;;;;12.00;11.75;;;;;19.07;52.26;101448.94;5083100;28;45594;-53
2021/08/30 03:54:05;;;;;;;;;11.00;10.25;;;;;19.06;52.66;101442.75;5083198;28;46194;-53
2021/08/30 03:56:31;;;;;;;;;16.00;11.25;;;;;19.08;52.45;101456.91;5082811;28;45339;-53
2021/08/30 03:58:58;;;;;;;;;13.50;9.25;;;;;19.09;52.69;101450.63;5083353;28;45208;-53
2021/08/30 04:01:25;;;;;;;;;12.00;10.50;;;;;19.11;52.74;101453.25;5082862;28;45575;-53
2021/08/30 04:03:54;;;;;;;;;12.00;8.75;;;;;19.10;52.91;101447.03;5081414;28;46943;-52
2021/08/30 04:06:21;;;;;;;;;12.25;12.00;;;;;19.08;52.78;101448.91;5082911;28;45243;-51
2021/08/30 04:08:47;;;;;;;;;10.50;10.25;;;;;19.11;52.79;101442.59;5083230;28;45414;-53
2021/08/30 04:11:14;;;;;;;;;11.25;10.00;;;;;19.10;52.51;101440.84;5082773;28;45260;-53
2021/08/30 04:13:39;;;;;;;;;14.25;13.25;;;;;19.11;53.00;101439.91;5082505;28;46423;-53
2021/08/30 04:16:05;;;;;;;;;13.75;10.25;;;;;19.11;52.96;101435.44;5082800;28;45393;-52
2021/08/30 04:18:31;;;;;;;;;12.00;9.00;;;;;19.13;52.89;101438.03;5081461;28;45509;-53
2021/08/30 04:20:56;;;;;;;;;38.50;34.00;;;;;19.13;52.67;101446.91;5082893;28;45378;-52
2021/08/30 04:23:21;;;;;;;;;18.75;16.75;;;;;19.14;52.79;101446.00;5082444;28;45984;-54
2021/08/30 04:25:47;;;;;;;;;19.50;16.75;;;;;19.16;52.92;101441.47;5082869;28;45322;-54
2021/08/30 04:28:12;;;;;;;;;15.50;13.00;;;;;19.16;52.75;101443.28;5082920;28;45325;-54
2021/08/30 04:30:38;;;;;;;;;14.75;12.75;;;;;19.15;53.02;101442.38;5082561;28;45489;-54
2021/08/30 04:33:09;;;;;;;;;15.75;12.50;;;;;19.17;53.06;101447.69;5082683;27;45412;-53
2021/08/30 04:35:34;;;;;;;;;18.75;15.50;;;;;19.19;52.93;101445.81;5082440;28;45186;-54
2021/08/30 04:37:59;;;;;;;;;13.75;13.50;;;;;19.19;53.30;101450.28;5081205;28;45425;-54
2021/08/30 04:40:25;;;;;;;;;18.25;15.25;;;;;19.20;52.97;101441.34;5082527;27;45434;-52
2021/08/30 04:42:50;;;;;;;;;11.50;9.00;;;;;19.21;53.44;101451.94;5082331;28;45300;-54
2021/08/30 04:45:16;;;;;;;;;15.25;13.75;;;;;19.20;52.94;101438.69;5082497;28;45340;-54
2021/08/30 04:47:41;;;;;;;;;16.75;15.25;;;;;19.23;53.49;101446.56;5082790;28;45223;-54
2021/08/30 04:50:08;;;;;;;;;19.25;18.50;;;;;19.23;53.57;101446.56;5082056;28;45381;-54
2021/08/30 04:52:33;;;;;;;;;17.75;14.50;;;;;19.23;53.44;101452.78;5082170;27;45236;-54
2021/08/30 04:54:58;;;;;;;;;18.50;17.50;;;;;19.24;53.55;101456.28;5082278;28;45528;-54
2021/08/30 04:57:24;;;;;;;;;18.00;16.50;;;;;19.25;53.23;101460.69;5082203;28;45334;-52
2021/08/30 04:59:49;;;;;;;;;15.75;14.25;;;;;19.16;53.46;101444.13;5082207;28;45318;-53
2021/08/30 05:02:14;;;;;;;;;14.50;12.75;;;;;19.25;53.60;101458.03;5081929;28;45337;-55
2021/08/30 05:04:40;;;;;;;;;18.50;17.00;;;;;19.25;53.73;101458.03;5081917;28;45271;-54
2021/08/30 05:07:05;;;;;;;;;16.25;14.50;;;;;19.26;53.26;101462.44;5082394;28;45420;-54
2021/08/30 05:09:31;;;;;;;;;18.25;15.00;;;;;19.27;53.64;101461.47;5082077;28;45304;-54
2021/08/30 05:11:56;;;;;;;;;19.75;15.25;;;;;19.27;53.70;101461.47;5081691;28;45203;-54
2021/08/30 05:14:22;;;;;;;;;22.25;16.00;;;;;19.28;53.68;101460.56;5081868;28;45261;-54
2021/08/30 05:16:47;;;;;;;;;16.00;15.50;;;;;19.28;53.79;101463.22;5081907;28;45290;-54
2021/08/30 05:19:13;;;;;;;;;31.50;29.50;;;;;19.28;54.13;101460.56;5081521;28;45230;-54
2021/08/30 05:21:38;;;;;;;;;20.75;20.00;;;;;19.27;53.90;101459.69;5081482;28;46046;-54
2021/08/30 05:24:07;;;;;;;;;28.75;27.00;;;;;19.29;53.82;101454.31;5081682;28;45262;-52
2021/08/30 05:26:33;;;;;;;;;20.50;18.75;;;;;19.29;53.87;101460.50;5081841;28;45314;-54
2021/08/30 05:28:58;;;;;;;;;23.50;20.25;;;;;19.29;53.77;101462.31;5081530;28;45285;-53
2021/08/30 05:31:24;;;;;;;;;24.75;20.00;;;;;19.29;53.85;101457.81;5066397;28;46129;-53
2021/08/30 05:33:49;;;;;;;;;18.25;17.25;;;;;19.28;53.77;101461.44;5081509;28;45326;-51
2021/08/30 05:36:14;;;;;;;;;20.00;17.00;;;;;19.30;54.25;101459.56;5081613;28;45334;-52
2021/08/30 05:38:40;;;;;;;;;24.25;19.00;;;;;19.24;53.92;101451.81;5079234;28;45214;-52
2021/08/30 05:41:05;;;;;;;;;23.75;19.00;;;;;19.31;54.24;101460.44;5081530;27;45199;-54
2021/08/30 05:43:30;;;;;;;;;22.25;20.50;;;;;19.31;54.02;101469.31;5080634;28;45145;-53
2021/08/30 05:45:56;;;;;;;;;21.25;19.00;;;;;19.30;53.73;101464.91;5081636;28;45276;-54
2021/08/30 05:48:21;;;;;;;;;33.00;23.25;;;;;19.29;54.10;101463.16;5081060;28;45239;-54
2021/08/30 05:50:46;;;;;;;;;22.75;18.75;;;;;19.30;54.19;101462.22;5081159;28;46118;-54
2021/08/30 05:53:12;;;;;;;;;24.25;20.25;;;;;19.31;54.23;101466.63;5081153;28;45255;-53
2021/08/30 05:55:37;;;;;;;;;28.00;25.25;;;;;19.31;54.08;101476.44;5081305;28;45758;-53
2021/08/30 05:58:02;;;;;;;;;25.50;24.75;;;;;19.32;54.44;101465.72;5080960;28;45435;-55
2021/08/30 06:00:28;;;;;;;;;25.50;22.75;;;;;19.33;54.15;101475.44;5081236;28;45293;-53
2021/08/30 06:02:54;;;;;;;;;27.50;20.75;;;;;19.33;54.14;101474.56;5081055;28;45393;-54
2021/08/30 06:05:19;;;;;;;;;27.75;23.75;;;;;19.35;54.19;101480.72;5080948;28;45278;-52
2021/08/30 06:07:44;;;;;;;;;28.25;23.00;;;;;19.36;54.50;101478.91;5080903;28;45497;-54
2021/08/30 06:10:10;;;;;;;;;24.50;24.00;;;;;19.37;54.36;101481.53;5080960;28;45436;-54
2021/08/30 06:12:37;;;;;;;;;33.25;26.50;;;;;19.37;54.20;101475.31;5060690;28;45346;-54
2021/08/30 06:15:03;;;;;;;;;28.25;25.50;;;;;19.38;54.30;101471.72;5072862;28;45337;-54
2021/08/30 06:17:29;;;;;;;;;25.25;23.00;;;;;19.38;54.53;101469.91;5080520;28;45339;-52
2021/08/30 06:19:54;;;;;;;;;26.25;24.25;;;;;19.39;54.61;101482.31;5080319;28;46354;-54
2021/08/30 06:22:20;;;;;;;;;27.00;25.00;;;;;19.39;54.94;101482.31;5080402;28;45480;-52
2021/08/30 06:24:50;;;;;;;;;26.75;24.00;;;;;19.41;54.55;101488.47;5080935;28;45363;-52
2021/08/30 06:27:17;;;;;;;;;29.00;25.00;;;;;19.42;54.30;101487.53;5080607;28;45819;-53
2021/08/30 06:29:43;;;;;;;;;28.75;26.00;;;;;19.43;54.30;101491.94;5080450;28;46057;-53
2021/08/30 06:32:08;;;;;;;;;30.50;29.00;;;;;19.45;54.73;101497.22;5080556;28;45317;-54
2021/08/30 06:34:34;;;;;;;;;24.50;23.50;;;;;19.47;54.25;101498.00;5080700;28;45334;-54
2021/08/30 06:36:59;;;;;;;;;28.00;25.75;;;;;19.43;54.47;101489.28;5080427;28;45433;-52
2021/08/30 06:39:24;;;;;;;;;24.25;21.25;;;;;19.49;54.19;101505.00;5078543;28;46940;-55
2021/08/30 06:41:50;;;;;;;;;26.50;23.50;;;;;19.49;54.37;101496.16;5061088;28;45275;-53
2021/08/30 06:44:15;;;;;;;;;23.75;23.00;;;;;19.48;54.75;101489.97;5060435;28;45477;-54
2021/08/30 06:46:41;;;;;;;;;29.25;26.25;;;;;19.52;54.90;101490.72;5060077;28;46120;-55
2021/08/30 06:49:06;;;;;;;;;29.50;27.50;;;;;19.54;54.85;101487.97;5060001;28;46020;-54
2021/08/30 06:51:32;;;;;;;;;28.50;27.00;;;;;19.57;54.64;101501.19;5060057;28;45215;-54
2021/08/30 06:53:57;;;;;;;;;32.00;27.75;;;;;19.56;54.91;101492.31;5060287;28;45308;-54
2021/08/30 06:56:23;;;;;;;;;26.50;25.25;;;;;19.58;54.65;101492.25;5058630;28;45434;-54
2021/08/30 06:58:48;;;;;;;;;29.25;26.25;;;;;19.59;54.85;101486.00;5059892;28;45393;-54
2021/08/30 07:01:13;;;;;;;;;28.50;24.25;;;;;19.61;54.63;101495.66;5059818;28;45370;-54
2021/08/30 07:03:38;;;;;;;;;32.00;28.75;;;;;19.61;54.43;101487.66;5059922;28;45303;-54
2021/08/30 07:06:04;;;;;;;;;28.50;26.00;;;;;19.63;54.33;101503.59;5059741;28;45172;-54
2021/08/30 07:08:29;;;;;;;;;26.50;23.50;;;;;19.63;54.36;101499.16;5060042;28;45399;-54
2021/08/30 07:10:54;;;;;;;;;28.00;24.50;;;;;19.64;54.91;101500.84;5059883;28;45426;-53
2021/08/30 07:13:20;;;;;;;;;31.25;26.75;;;;;19.66;54.88;101506.16;5059989;28;45284;-54
2021/08/30 07:15:47;;;;;;;;;28.50;26.25;;;;;19.68;54.41;101511.41;5059643;28;45279;-54
2021/08/30 07:18:13;;;;;;;;;28.50;25.75;;;;;19.65;54.79;101502.59;5059464;28;45520;-54
2021/08/30 07:20:39;;;;;;;;;29.50;27.25;;;;;19.70;54.91;101512.22;5059501;28;45284;-55
2021/08/30 07:23:04;;;;;;;;;29.00;24.00;;;;;19.71;54.46;101512.16;5059632;28;45426;-54
2021/08/30 07:25:29;;;;;;;;;26.75;24.25;;;;;19.71;54.96;101508.63;5059767;28;45304;-54
2021/08/30 07:27:55;;;;;;;;;26.25;26.25;;;;;19.70;54.57;101513.09;5059437;28;47164;-55
2021/08/30 07:30:20;;;;;;;;;27.00;26.25;;;;;19.77;54.73;101524.38;5059425;28;45243;-53
2021/08/30 07:32:46;;;;;;;;;20.50;16.50;;;;;19.76;54.74;101519.97;5059806;28;45560;-55
2021/08/30 07:35:13;;;;;;;;;28.00;23.75;;;;;19.78;54.70;101518.13;5059215;28;45346;-54
2021/08/30 07:37:38;;;;;;;;;26.00;23.00;;;;;19.79;54.98;101515.38;5059987;28;47021;-54
2021/08/30 07:40:05;;;;;;;;;26.00;20.25;;;;;19.83;54.89;101523.31;5079426;27;45212;-53
2021/08/30 07:42:30;;;;;;;;;21.50;19.50;;;;;19.86;54.90;101523.16;5067393;28;45335;-53
2021/08/30 07:44:56;;;;;;;;;24.25;21.25;;;;;19.89;54.80;101531.06;5077439;28;45323;-53
2021/08/30 07:47:21;;;;;;;;;29.25;23.00;;;;;19.91;54.35;101529.16;5079715;28;46018;-54
2021/08/30 07:49:46;;;;;;;;;24.50;19.00;;;;;19.92;54.63;101528.25;5079353;27;45255;-54
2021/08/30 07:52:12;;;;;;;;;24.00;21.50;;;;;19.96;54.42;101528.06;5079790;28;45334;-54
2021/08/30 07:54:37;;;;;;;;;25.25;22.50;;;;;19.98;54.75;101533.34;5079569;28;45310;-53
2021/08/30 07:57:03;;;;;;;;;22.50;21.50;;;;;19.99;54.52;101527.06;5079310;28;45334;-53
2021/08/30 07:59:28;;;;;;;;;22.75;20.00;;;;;20.06;54.37;101543.69;5079463;28;45374;-54
2021/08/30 08:01:53;;;;;;;;;25.50;21.00;;;;;20.10;54.76;101534.59;5079607;28;45295;-54
2021/08/30 08:04:20;;;;;;;;;25.00;23.75;;;;;20.12;54.26;101538.09;5079236;28;45319;-53
2021/08/30 08:06:45;;;;;;;;;24.75;21.00;;;;;20.15;54.71;101545.97;5080451;28;45278;-54
2021/08/30 08:09:10;;;;;;;;;23.25;22.25;;;;;20.18;54.67;101540.50;5082798;28;45181;-52
2021/08/30 08:11:36;;;;;;;;;22.50;21.25;;;;;20.21;54.79;101537.69;5083031;28;45836;-53
2021/08/30 08:14:02;;;;;;;;;18.75;17.75;;;;;20.25;54.00;101546.44;5083000;28;45409;-53
2021/08/30 08:16:27;;;;;;;;;21.50;19.00;;;;;20.27;54.06;101545.44;5082699;28;46320;-55
2021/08/30 08:18:54;;;;;;;;;22.75;17.25;;;;;20.33;54.05;101552.34;5082555;28;45226;-54
2021/08/30 08:21:21;;;;;;;;;10.25;9.00;;;;;20.37;54.33;101555.75;5082920;28;45154;-54
2021/08/30 08:23:46;;;;;;;;;18.25;16.75;;;;;20.40;54.14;101545.81;5082409;28;45460;-53
2021/08/30 08:26:12;;;;;;;;;17.00;16.75;;;;;20.44;53.83;101552.75;5081263;28;47261;-52
2021/08/30 08:28:37;;;;;;;;;14.50;14.00;;;;;20.49;54.34;101549.88;5082504;28;45350;-52
2021/08/30 08:31:03;;;;;;;;;16.50;15.75;;;;;20.45;54.21;101542.91;5082737;28;45433;-53
2021/08/30 08:33:28;;;;;;;;;17.00;15.00;;;;;20.56;54.11;101558.50;5082430;28;45355;-54
2021/08/30 08:35:54;;;;;;;;;17.50;14.50;;;;;20.60;53.91;101557.41;5081203;28;45838;-53
2021/08/30 08:38:20;;;;;;;;;19.00;15.00;;;;;20.65;53.89;101560.75;5080467;27;45359;-53
2021/08/30 08:40:45;;;;;;;;;17.25;16.00;;;;;20.67;53.78;101553.56;5082685;27;45229;-54
2021/08/30 08:43:15;;;;;;;;;17.50;15.00;;;;;20.72;54.04;101569.41;5082237;28;45429;-54
2021/08/30 08:45:42;;;;;;;;;16.50;14.00;;;;;20.74;53.32;101567.53;5081077;28;45497;-54
2021/08/30 08:48:08;;;;;;;;;17.50;16.75;;;;;20.78;53.21;101570.00;5081871;28;45330;-53
2021/08/30 08:50:34;;;;;;;;;19.75;18.00;;;;;20.82;53.76;101557.38;5082302;28;45326;-54
2021/08/30 08:53:03;;;;;;;;;16.25;15.50;;;;;20.86;53.73;101553.63;5082208;28;45332;-52
2021/08/30 08:55:33;;;;;;;;;20.50;17.00;;;;;20.90;53.36;101560.56;5082269;28;46207;-54
2021/08/30 08:58:02;;;;;;;;;19.50;17.00;;;;;20.95;53.66;101563.03;5082002;28;45315;-54
2021/08/30 09:00:28;;;;;;;;;17.50;16.50;;;;;21.00;52.75;101558.34;5082130;28;45376;-55
2021/08/30 09:02:53;;;;;;;;;21.25;18.75;;;;;21.06;53.24;101557.22;5061211;28;45450;-53
2021/08/30 09:05:24;;;;;;;;;20.75;18.50;;;;;21.10;52.77;101562.34;5074169;28;46200;-55
2021/08/30 09:07:50;;;;;;;;;16.25;15.50;;;;;21.16;52.91;101560.34;5081983;28;45304;-54
2021/08/30 09:10:20;;;;;;;;;20.00;18.50;;;;;21.22;52.96;101562.72;5082064;28;45322;-54
2021/08/30 09:12:47;;;;;;;;;16.25;14.50;;;;;21.27;52.97;101558.03;5081829;28;45477;-53
2021/08/30 09:15:23;;;;;;;;;15.50;15.50;;;;;21.33;52.94;101555.06;5081899;28;45350;-52
2021/08/30 09:17:54;;;;;;;;;15.75;15.00;;;;;21.41;53.01;101566.28;5080873;28;45370;-56
2021/08/30 09:20:28;;;;;;;;;19.75;17.00;;;;;21.49;52.45;101568.59;5081550;28;45260;-56
2021/08/30 09:22:53;;;;;;;;;17.50;16.25;;;;;21.54;52.59;101563.88;5081571;28;45433;-52
2021/08/30 09:25:20;;;;;;;;;15.75;14.25;;;;;21.62;52.45;101568.88;5081750;28;46536;-53
2021/08/30 09:27:48;;;;;;;;;20.25;17.25;;;;;21.70;52.37;101569.41;5081611;28;45374;-54
2021/08/30 09:30:15;;;;;;;;;15.00;13.25;;;;;21.77;52.12;101566.44;5081497;28;45260;-55
2021/08/30 09:32:46;;;;;;;;;16.75;15.00;;;;;21.84;52.66;101570.56;5081622;28;45169;-53
2021/08/30 09:35:11;;;;;;;;;15.25;13.50;;;;;21.89;52.14;101566.69;5081225;28;45248;-53
2021/08/30 09:37:39;;;;;;;;;14.00;13.50;;;;;21.97;52.42;101574.34;5080155;28;45295;-53
2021/08/30 09:40:07;;;;;;;;;16.75;15.50;;;;;22.03;52.06;101575.88;5081185;27;45245;-53
2021/08/30 09:42:33;;;;;;;;;17.25;16.00;;;;;22.08;52.12;101573.81;5081497;28;45442;-52
2021/08/30 09:45:20;;;;;;;;;15.00;14.50;;;;;22.12;51.70;101571.88;5081228;28;45211;-54
2021/08/30 09:47:57;;;;;;;;;15.25;12.00;;;;;22.16;51.64;101571.66;5081351;28;45267;-54
2021/08/30 09:50:33;;;;;;;;;16.75;14.75;;;;;22.21;51.77;101576.75;5081444;28;45425;-53
2021/08/30 09:53:03;;;;;;;;;11.50;11.00;;;;;22.26;51.44;101571.19;5081226;28;45406;-55
2021/08/30 09:55:29;;;;;;;;;15.00;15.00;;;;;22.29;52.07;101573.69;5081189;28;47345;-54
2021/08/30 09:57:56;;;;;;;;;18.25;17.75;;;;;22.31;51.45;101572.66;5080842;28;45358;-53
2021/08/30 10:00:22;;;;;;;;;17.25;17.25;;;;;22.37;51.48;101574.22;5063263;28;45325;-54
2021/08/30 10:02:52;;;;;;;;;15.75;12.50;;;;;22.40;51.30;101564.22;5062715;28;45538;-53
2021/08/30 10:05:18;;;;;;;;;13.50;13.50;;;;;22.44;51.29;101572.97;5060803;28;46033;-53
2021/08/30 10:07:45;;;;;;;;;16.25;14.50;;;;;22.47;51.18;101563.91;5060628;28;45293;-53
2021/08/30 10:10:12;;;;;;;;;16.50;15.25;;;;;22.50;51.53;101566.41;5060800;28;45451;-55
2021/08/30 10:12:39;;;;;;;;;12.00;12.00;;;;;22.51;51.16;101560.97;5059260;28;45343;-52
2021/08/30 10:15:06;;;;;;;;;16.50;13.50;;;;;22.55;51.37;101565.25;5060749;28;46024;-54
2021/08/30 10:17:32;;;;;;;;;13.00;12.00;;;;;22.59;51.22;101560.59;5060418;28;45505;-54
2021/08/30 10:20:00;;;;;;;;;11.75;11.00;;;;;22.61;51.45;101564.03;5071739;28;45244;-53
2021/08/30 10:22:25;;;;;;;;;13.25;12.75;;;;;22.65;50.59;101557.56;5061122;28;45334;-55
2021/08/30 10:24:52;;;;;;;;;15.75;14.50;;;;;22.67;51.28;101553.00;5060292;28;45939;-54
2021/08/30 10:27:29;;;;;;;;;14.75;13.75;;;;;22.71;50.93;101554.56;5060296;28;45329;-54
2021/08/30 10:30:11;;;;;;;;;17.00;16.75;;;;;22.77;50.86;101561.44;5060014;28;45314;-54
2021/08/30 10:32:39;;;;;;;;;13.75;13.75;;;;;22.82;50.79;101563.88;5060145;28;45360;-55
2021/08/30 10:35:19;;;;;;;;;15.00;12.75;;;;;22.87;50.78;101560.00;5059967;28;45400;-53
2021/08/30 10:38:08;;;;;;;;;14.50;14.00;;;;;22.93;50.61;101557.94;5061746;28;45232;-56
2021/08/30 10:40:37;;;;;;;;;14.25;14.25;;;;;22.98;50.69;101564.78;5060431;28;45382;-53
2021/08/30 10:43:23;;;;;;;;;18.75;16.50;;;;;23.04;50.31;101559.09;5060045;28;45463;-55
2021/08/30 10:45:58;;;;;;;;;14.75;13.00;;;;;23.10;50.38;101557.88;5060074;28;45266;-55
2021/08/30 10:48:38;;;;;;;;;13.25;13.00;;;;;23.15;50.42;101565.69;5059861;28;45177;-52
2021/08/30 10:51:21;;;;;;;;;15.75;13.75;;;;;23.20;50.17;101564.50;5070442;28;45439;-56
2021/08/30 10:53:57;;;;;;;;;15.25;13.75;;;;;23.27;50.34;101561.50;5060136;28;45329;-54
2021/08/30 10:56:27;;;;;;;;;13.00;13.00;;;;;23.32;49.98;101567.47;5059663;28;46143;-55
2021/08/30 10:58:53;;;;;;;;;18.25;16.25;;;;;23.38;50.34;101569.81;5059876;28;45227;-55
2021/08/30 11:01:19;;;;;;;;;12.25;12.25;;;;;23.42;50.11;101571.38;5059946;28;45180;-55
2021/08/30 11:03:55;;;;;;;;;15.75;14.50;;;;;23.49;49.79;101574.59;5059809;28;45306;-55
2021/08/30 11:06:20;;;;;;;;;17.25;14.75;;;;;23.53;49.92;101571.66;5060015;28;46987;-54
2021/08/30 11:08:45;;;;;;;;;13.00;12.50;;;;;23.56;49.79;101573.31;5059821;28;45485;-55
2021/08/30 11:11:22;;;;;;;;;17.00;17.00;;;;;23.59;49.68;101564.22;5060111;28;45387;-56
2021/08/30 11:14:11;;;;;;;;;13.75;13.25;;;;;23.59;49.98;101581.16;5059792;28;45380;-55
2021/08/30 11:16:38;;;;;;;;;14.75;14.00;;;;;23.63;49.55;101581.88;5059710;28;46440;-55